עמוד ראשי
METAR-TAF:

METAR-TAF

שדות תעופה :

Teslin, יוקון, קנדה

קו רוחב: 60-10N, קו אורך: 132-44W, גובה: 711מטר

תצפית מזג אוויר נוכחית

הדו"ח נערך לפני 1 שעות ו 7דקות, בשעה 18:00 UTC
רוח 5קשר מכיוון דרום/דרום-מערב, משתנה בין דרום/דרום-מזרח ו דרום-מערב
טמפרטורת 15 צלסיוס
לחות 59%
לחץ 1013 hPa
ראות: 48.3קילומטר
מעט עננים בגובה 6000רגל
מעט עננים בגובה 14000רגל
עננים בינוניים בגובה 24000רגל

METAR: CYZW 171800Z 20005KT 150V220 30SM FEW060 FEW140 BKN240 15/07 A2992 RMK CU1AC1CI5 SLP145 DENSITY ALT 2900FT

זמן: 12:07 (19:07 UTC)

תחזית

הדו"ח נערך לפני 1 שעות ו 27דקות, בשעה 17:40 UTC
תחזית בתוקף מ 17 ב 18 UTC עד 18 ב 01 UTC
רוח 6קשר מכיוון דרום/דרום-מערב
ראות: 10קילומטר
מעט עננים בגובה 6000רגל
עננים פזורים בגובה 12000רגל
עננים בינוניים בגובה 24000רגל
יעשה מ
17 ב 22 UTC עד 17 ב 24 UTC
רוח 6קשר מכיוון צפון

TAF: CYZW 171740Z 1718/1801 21006KT P6SM FEW060 SCT120 BKN240 BECMG 1722/1724 36006KT RMK NXT FCST BY 181500Z

תצפיות ותחזיות מזג אוויר לגבי יותר מ- 4,000 שדות תעופה ברחבי העולם. דוחות METAR ו- TAF.

התחנות הזמינות מסומנות בנקודות צהובות ואדומות על גבי המפה.

העבר את העכבר לנקודה הצבעונית על מנת לראות את שם התחנה.

לאחר מכן, לחץ כדי לראות את תוכן ואת תחזיות מזג האוויר.

כדי לשנות את המפה: לחץ על הכפתורים הירוקים עם הפלוס השחור כדי להתקרב; על הכפתור הירוק עם המקף כדי להתרחק; או בחיצים הירוקים למפות סמוכות.


METAR-TAF: